createdAt,value
2019-02-12T00:01:03.554Z,29.90
2019-02-12T00:03:34.209Z,14.53
2019-02-12T00:06:06.559Z,27.03
2019-02-12T00:08:37.222Z,32.10
2019-02-12T00:11:07.919Z,27.77
2019-02-12T00:13:38.627Z,33.17
2019-02-12T00:16:09.368Z,23.30
2019-02-12T00:18:40.097Z,20.07
2019-02-12T00:21:10.833Z,22.27
2019-02-12T00:23:41.526Z,20.53
2019-02-12T00:26:12.189Z,26.37
2019-02-12T00:28:42.969Z,28.27
2019-02-12T00:31:13.708Z,23.63
2019-02-12T00:33:44.393Z,24.10
2019-02-12T00:36:15.155Z,24.03
2019-02-12T00:38:46.050Z,16.10
2019-02-12T00:41:16.887Z,30.03
2019-02-12T00:43:47.609Z,21.77
2019-02-12T00:46:18.357Z,18.77
2019-02-12T00:48:48.975Z,29.33
2019-02-12T00:51:19.597Z,23.03
2019-02-12T00:53:50.273Z,19.87
2019-02-12T00:56:20.923Z,20.27
2019-02-12T00:58:51.538Z,31.30
2019-02-12T01:01:23.263Z,19.23
2019-02-12T01:03:54.042Z,29.50
2019-02-12T01:06:24.861Z,20.30
2019-02-12T01:08:55.597Z,17.30
2019-02-12T01:11:26.284Z,16.63
2019-02-12T01:13:58.581Z,23.07
2019-02-12T01:16:29.246Z,24.23
2019-02-12T01:18:59.949Z,26.87
2019-02-12T01:21:30.873Z,22.83
2019-02-12T01:24:01.662Z,18.37
2019-02-12T01:26:32.470Z,22.63
2019-02-12T01:29:03.220Z,14.97
2019-02-12T01:31:35.484Z,32.90
2019-02-12T01:34:06.244Z,28.73
2019-02-12T01:36:37.050Z,26.93
2019-02-12T01:39:11.825Z,35.90
2019-02-12T01:41:42.678Z,38.77
2019-02-12T01:44:15.448Z,37.37
2019-02-12T01:46:46.206Z,25.27
2019-02-12T01:49:16.847Z,26.23
2019-02-12T02:10:32.918Z,30.10
2019-02-12T02:13:03.647Z,21.67
2019-02-12T02:15:34.451Z,26.60
2019-02-12T02:18:05.178Z,28.10
2019-02-12T02:20:35.810Z,45.47
2019-02-12T02:23:06.510Z,37.07
2019-02-12T02:25:37.308Z,43.07
2019-02-12T02:28:08.074Z,22.63
2019-02-12T02:30:38.777Z,21.53
2019-02-12T02:33:09.584Z,42.53
2019-02-12T02:35:42.012Z,27.97
2019-02-12T02:38:12.767Z,21.70
2019-02-12T02:40:43.524Z,35.17
2019-02-12T02:43:14.264Z,31.27
2019-02-12T02:45:45.069Z,20.80
2019-02-12T02:48:15.840Z,30.33
2019-02-12T02:50:46.578Z,41.73
2019-02-12T02:53:17.346Z,43.33
2019-02-12T02:55:48.129Z,40.83
2019-02-12T02:58:18.897Z,36.40
2019-02-12T03:00:49.543Z,36.20
2019-02-12T03:03:21.359Z,25.83
2019-02-12T03:05:52.019Z,32.40
2019-02-12T03:08:22.944Z,26.90
2019-02-12T03:10:54.559Z,32.47
2019-02-12T03:13:25.235Z,42.67
2019-02-12T03:15:56.985Z,27.33
2019-02-12T03:18:27.756Z,34.03
2019-02-12T03:20:58.526Z,21.30
2019-02-12T03:23:29.214Z,31.43
2019-02-12T03:25:59.897Z,28.53
2019-02-12T03:28:30.714Z,25.10
2019-02-12T03:31:01.443Z,28.83
2019-02-12T03:33:32.147Z,25.40
2019-02-12T03:36:02.876Z,28.37
2019-02-12T03:38:33.606Z,41.63
2019-02-12T03:41:04.286Z,43.23
2019-02-12T03:43:34.969Z,32.07
2019-02-12T03:46:05.696Z,26.00
2019-02-12T03:48:36.349Z,24.30
2019-02-12T03:51:07.058Z,39.63
2019-02-12T03:53:37.698Z,31.53
2019-02-12T03:56:09.290Z,39.37
2019-02-12T03:58:40.018Z,32.70
2019-02-12T04:01:10.695Z,43.57
2019-02-12T04:03:41.362Z,30.03
2019-02-12T04:06:12.078Z,32.53
2019-02-12T04:08:42.754Z,28.57
2019-02-12T04:11:13.510Z,31.93
2019-02-12T04:13:44.378Z,30.33
2019-02-12T04:16:15.602Z,38.57
2019-02-12T04:18:46.361Z,36.50
2019-02-12T04:21:17.131Z,30.43
2019-02-12T04:23:47.864Z,38.73
2019-02-12T04:26:20.063Z,32.53
2019-02-12T04:28:50.692Z,34.17
2019-02-12T04:31:21.345Z,28.40
2019-02-12T04:33:52.020Z,42.63
2019-02-12T04:36:23.736Z,41.40
2019-02-12T04:38:54.419Z,53.53
2019-02-12T04:41:25.096Z,38.93
2019-02-12T04:43:56.010Z,27.23
2019-02-12T04:46:26.789Z,40.80
2019-02-12T04:48:57.686Z,41.73
2019-02-12T04:51:28.515Z,35.40
2019-02-12T04:53:59.289Z,42.07
2019-02-12T04:56:30.028Z,44.97
2019-02-12T04:59:00.807Z,36.20
2019-02-12T05:01:31.584Z,56.57
2019-02-12T05:04:02.391Z,40.43
2019-02-12T05:06:33.244Z,43.80
2019-02-12T05:09:15.224Z,49.40
2019-02-12T05:11:57.707Z,48.83
2019-02-12T05:14:28.408Z,43.90
2019-02-12T05:16:59.057Z,41.00
2019-02-12T05:19:29.842Z,35.93
2019-02-12T05:22:00.514Z,47.67
2019-02-12T05:24:31.367Z,61.33
2019-02-12T05:27:02.111Z,47.23
2019-02-12T05:29:32.866Z,30.57
2019-02-12T05:32:03.647Z,42.83
2019-02-12T05:34:34.401Z,49.70
2019-02-12T05:37:05.100Z,51.43
2019-02-12T05:39:36.511Z,45.77
2019-02-12T05:42:07.370Z,48.33
2019-02-12T05:44:38.393Z,50.33
2019-02-12T05:47:09.177Z,24.70
2019-02-12T05:49:41.491Z,47.13
2019-02-12T05:52:14.234Z,32.27
2019-02-12T05:54:45.065Z,37.87
2019-02-12T05:57:15.854Z,36.33
2019-02-12T05:59:47.082Z,35.97
2019-02-12T06:02:18.003Z,30.80
2019-02-12T06:04:48.857Z,40.80
2019-02-12T06:07:19.507Z,38.87
2019-02-12T06:09:50.198Z,21.17
2019-02-12T06:12:20.863Z,24.50
2019-02-12T06:14:53.140Z,32.70
2019-02-12T06:17:23.903Z,26.47
2019-02-12T06:19:54.552Z,33.37
2019-02-12T06:22:25.273Z,32.97
2019-02-12T06:24:56.197Z,19.37
2019-02-12T06:27:27.766Z,30.80
2019-02-12T06:29:58.495Z,31.37
2019-02-12T06:32:29.353Z,24.97
2019-02-12T06:35:00.706Z,28.10
2019-02-12T06:37:31.521Z,30.30
2019-02-12T06:40:03.354Z,30.73
2019-02-12T06:42:35.146Z,25.83
2019-02-12T06:45:06.736Z,31.43
2019-02-12T06:47:37.491Z,44.73
2019-02-12T06:50:09.950Z,43.33
2019-02-12T06:52:40.908Z,35.90
2019-02-12T06:55:14.653Z,25.57
2019-02-12T06:57:45.473Z,39.83
2019-02-12T07:00:16.479Z,28.63
2019-02-12T07:03:13.003Z,36.73
2019-02-12T07:06:13.662Z,35.27
2019-02-12T07:08:54.578Z,32.43
2019-02-12T07:12:03.893Z,34.00
2019-02-12T07:14:49.591Z,30.80
2019-02-12T07:18:00.845Z,32.00
2019-02-12T07:21:13.638Z,24.20
2019-02-12T07:24:15.110Z,31.80
2019-02-12T07:27:26.817Z,25.53
2019-02-12T07:30:49.110Z,24.50
2019-02-12T07:33:48.819Z,27.60
2019-02-12T07:37:04.821Z,35.00
2019-02-12T07:39:54.973Z,15.20
2019-02-12T07:42:38.802Z,26.97
2019-02-12T07:45:46.270Z,22.83
2019-02-12T07:48:57.185Z,26.60
2019-02-12T07:51:41.363Z,27.17
2019-02-12T07:54:46.736Z,20.90
2019-02-12T07:58:06.619Z,32.33
2019-02-12T08:00:58.229Z,30.57
2019-02-12T08:04:07.573Z,35.70
2019-02-12T08:06:52.845Z,23.57
2019-02-12T08:09:51.618Z,30.57
2019-02-12T08:13:18.376Z,29.70
2019-02-12T08:16:37.740Z,24.80
2019-02-12T08:19:30.486Z,29.17
2019-02-12T08:22:37.747Z,33.50
2019-02-12T08:25:32.302Z,32.67
2019-02-12T08:29:02.205Z,31.83
2019-02-12T08:31:56.284Z,35.87
2019-02-12T08:35:04.091Z,31.07
2019-02-12T08:38:06.002Z,40.50
2019-02-12T08:41:12.363Z,38.77
2019-02-12T08:44:09.606Z,21.70
2019-02-12T08:47:20.722Z,27.17
2019-02-12T08:50:00.566Z,31.13
2019-02-12T08:52:55.917Z,26.13
2019-02-12T08:56:10.056Z,39.90
2019-02-12T08:58:50.928Z,27.87
2019-02-12T09:02:03.111Z,28.33
2019-02-12T09:04:41.742Z,28.03
2019-02-12T09:07:39.203Z,41.83
2019-02-12T09:10:44.771Z,38.13
2019-02-12T09:13:41.247Z,28.13
2019-02-12T09:17:17.194Z,23.67
2019-02-12T09:20:46.651Z,34.20
2019-02-12T09:24:01.452Z,25.23
2019-02-12T09:27:25.154Z,28.47
2019-02-12T09:30:31.101Z,31.23
2019-02-12T09:33:47.158Z,29.20
2019-02-12T09:37:02.014Z,27.40
2019-02-12T09:40:20.231Z,34.73
2019-02-12T09:43:32.060Z,29.17
2019-02-12T09:46:44.787Z,32.87
2019-02-12T09:49:59.690Z,28.43
2019-02-12T09:53:04.300Z,33.13
2019-02-12T09:56:08.849Z,35.73
2019-02-12T09:59:07.356Z,32.33
2019-02-12T10:01:56.250Z,35.63
2019-02-12T10:04:41.233Z,24.47
2019-02-12T10:07:29.243Z,30.47
2019-02-12T10:10:39.822Z,31.27
2019-02-12T10:13:32.888Z,34.63
2019-02-12T10:16:33.106Z,29.30
2019-02-12T10:19:45.813Z,29.17
2019-02-12T10:22:39.656Z,29.07
2019-02-12T10:25:19.673Z,32.20
2019-02-12T10:28:31.502Z,33.17
2019-02-12T10:31:22.946Z,26.70
2019-02-12T10:33:53.712Z,29.63
2019-02-12T10:36:24.426Z,27.33
2019-02-12T10:38:55.071Z,28.17
2019-02-12T10:41:25.829Z,26.23
2019-02-12T10:43:58.092Z,22.37
2019-02-12T10:46:28.828Z,26.47
2019-02-12T10:49:00.466Z,26.43
2019-02-12T10:51:31.224Z,25.77
2019-02-12T10:54:01.989Z,27.27
2019-02-12T10:56:32.756Z,25.03
2019-02-12T10:59:03.499Z,20.83
2019-02-12T11:01:34.230Z,24.13
2019-02-12T11:04:04.998Z,26.77
2019-02-12T11:06:35.639Z,22.67
2019-02-12T11:09:06.549Z,27.63
2019-02-12T11:11:37.291Z,20.03
2019-02-12T11:14:07.950Z,18.20
2019-02-12T11:16:38.789Z,20.30
2019-02-12T11:19:09.470Z,15.17
2019-02-12T11:21:40.203Z,20.80
2019-02-12T11:24:10.968Z,17.77
2019-02-12T11:26:41.755Z,19.87
2019-02-12T11:29:12.531Z,20.23
2019-02-12T11:31:43.364Z,18.40
2019-02-12T11:34:14.071Z,22.70
2019-02-12T11:36:44.856Z,18.63
2019-02-12T11:39:15.536Z,23.00
2019-02-12T11:41:46.189Z,18.37
2019-02-12T11:44:17.023Z,17.33
2019-02-12T11:46:47.839Z,16.77
2019-02-12T11:49:20.247Z,17.40
2019-02-12T11:51:51.192Z,15.20
2019-02-12T11:54:23.478Z,16.63
2019-02-12T11:56:54.277Z,14.73
2019-02-12T11:59:24.996Z,17.77
2019-02-12T12:01:55.790Z,19.43
2019-02-12T12:04:28.037Z,19.10
2019-02-12T12:07:00.333Z,18.83
2019-02-12T12:09:31.109Z,17.60
2019-02-12T12:12:01.954Z,14.60
2019-02-12T12:14:32.843Z,18.67
2019-02-12T12:17:04.273Z,19.83
2019-02-12T12:19:34.947Z,19.67
2019-02-12T12:22:05.677Z,20.93
2019-02-12T12:24:36.499Z,17.53
2019-02-12T12:27:07.297Z,14.83
2019-02-12T12:29:38.307Z,16.07
2019-02-12T12:32:09.046Z,27.97
2019-02-12T12:34:39.905Z,20.87
2019-02-12T12:37:10.837Z,20.50
2019-02-12T12:39:41.709Z,17.70
2019-02-12T12:42:12.591Z,19.37
2019-02-12T12:44:43.378Z,17.33
2019-02-12T12:47:14.155Z,17.57
2019-02-12T12:49:44.922Z,21.63
2019-02-12T12:52:16.676Z,17.17
2019-02-12T12:54:49.288Z,20.27
2019-02-12T12:57:19.988Z,22.60
2019-02-12T12:59:50.647Z,17.40
2019-02-12T13:02:21.409Z,24.80
2019-02-12T13:04:52.166Z,22.57
2019-02-12T13:07:22.971Z,14.80
2019-02-12T13:09:53.675Z,19.23
2019-02-12T13:12:24.383Z,20.13
2019-02-12T13:14:55.330Z,17.83
2019-02-12T13:17:26.106Z,23.00
2019-02-12T13:19:56.914Z,17.40
2019-02-12T13:22:27.694Z,19.50
2019-02-12T13:24:58.390Z,19.10
2019-02-12T13:27:30.711Z,16.10
2019-02-12T13:30:01.499Z,17.47
2019-02-12T13:32:32.257Z,19.10
2019-02-12T13:35:02.984Z,18.93
2019-02-12T13:37:33.930Z,16.60
2019-02-12T13:40:05.284Z,21.37
2019-02-12T13:42:39.021Z,19.43
2019-02-12T13:45:12.568Z,17.80
2019-02-12T13:47:43.395Z,18.67
2019-02-12T13:50:14.111Z,18.93
2019-02-12T13:52:44.868Z,17.67
2019-02-12T13:55:17.594Z,20.70
2019-02-12T13:57:48.210Z,18.00
2019-02-12T14:00:18.959Z,17.23
2019-02-12T14:02:49.731Z,18.03
2019-02-12T14:05:20.542Z,16.40
2019-02-12T14:07:52.751Z,16.60
2019-02-12T14:10:23.557Z,16.67
2019-02-12T14:12:54.344Z,14.50
2019-02-12T14:15:25.111Z,23.57
2019-02-12T14:17:56.219Z,18.00
2019-02-12T14:20:27.647Z,19.30
2019-02-12T14:23:00.165Z,20.67
2019-02-12T14:25:37.119Z,18.83
2019-02-12T14:28:10.953Z,19.83
2019-02-12T14:30:41.902Z,23.27
2019-02-12T14:33:13.706Z,20.53
2019-02-12T14:35:44.652Z,17.73
2019-02-12T14:38:15.386Z,17.80
2019-02-12T14:40:46.144Z,20.87
2019-02-12T14:43:16.960Z,21.93
2019-02-12T14:45:47.653Z,19.07
2019-02-12T14:48:18.395Z,20.27
2019-02-12T14:50:49.457Z,21.50
2019-02-12T14:53:20.404Z,18.30
2019-02-12T14:55:51.290Z,22.17
2019-02-12T14:58:21.977Z,21.53
2019-02-12T15:00:52.673Z,19.73
2019-02-12T15:03:23.342Z,21.00
2019-02-12T15:05:54.055Z,17.17
2019-02-12T15:08:24.833Z,20.67
2019-02-12T15:10:55.852Z,20.47
2019-02-12T15:13:28.107Z,20.33
2019-02-12T15:15:58.853Z,22.33
2019-02-12T15:18:29.654Z,27.43
2019-02-12T15:21:00.741Z,18.37
2019-02-12T15:23:31.550Z,20.67
2019-02-12T15:26:03.991Z,20.47
2019-02-12T15:28:34.862Z,19.17
2019-02-12T15:31:07.388Z,24.33
2019-02-12T15:33:39.236Z,18.87
2019-02-12T15:36:10.037Z,22.20
2019-02-12T15:38:42.861Z,20.13
2019-02-12T15:41:13.770Z,24.97
2019-02-12T15:43:44.715Z,23.83
2019-02-12T15:46:16.326Z,18.73
2019-02-12T15:48:47.096Z,21.40
2019-02-12T15:51:18.088Z,23.07
2019-02-12T15:53:50.937Z,21.70
2019-02-12T15:56:21.674Z,22.97
2019-02-12T15:58:53.687Z,27.27
2019-02-12T16:01:26.226Z,25.17
2019-02-12T16:03:58.274Z,22.57
2019-02-12T16:06:29.466Z,28.90
2019-02-12T16:09:01.093Z,27.30
2019-02-12T16:11:31.755Z,21.20
2019-02-12T16:14:02.782Z,20.13
2019-02-12T16:16:33.541Z,24.10
2019-02-12T16:19:25.480Z,27.33
2019-02-12T16:22:08.266Z,21.07
2019-02-12T16:24:51.046Z,25.17
2019-02-12T16:27:34.778Z,24.90
2019-02-12T16:30:17.190Z,22.10
2019-02-12T16:33:01.167Z,30.50
2019-02-12T16:35:45.289Z,29.37
2019-02-12T16:38:27.483Z,29.07
2019-02-12T16:41:09.995Z,23.07
2019-02-12T16:43:52.932Z,28.53
2019-02-12T16:49:38.804Z,25.93
2019-02-12T16:52:21.278Z,22.53
2019-02-12T16:55:04.194Z,31.73
2019-02-12T16:57:46.728Z,24.40
2019-02-12T17:00:29.622Z,27.93
2019-02-12T17:03:11.707Z,22.73
2019-02-12T17:05:54.207Z,28.30
2019-02-12T17:08:36.807Z,23.93
2019-02-12T17:11:20.062Z,24.80
2019-02-12T17:14:03.049Z,25.43
2019-02-12T17:16:45.210Z,24.20
2019-02-12T17:19:27.741Z,22.23
2019-02-12T17:22:10.075Z,22.47
2019-02-12T17:24:52.440Z,24.90
2019-02-12T17:27:34.969Z,27.50
2019-02-12T17:30:17.794Z,28.37
2019-02-12T17:32:59.963Z,26.07
2019-02-12T17:35:42.228Z,29.23
2019-02-12T17:38:26.039Z,31.37
2019-02-12T17:40:56.885Z,28.87
2019-02-12T17:43:39.531Z,24.80
2019-02-12T17:46:23.367Z,22.00
2019-02-12T17:49:23.271Z,22.73
2019-02-12T17:52:07.140Z,23.27
2019-02-12T17:58:12.758Z,28.63
2019-02-12T18:00:55.440Z,19.03
2019-02-12T18:03:38.923Z,19.47
2019-02-12T18:06:21.610Z,28.17
2019-02-12T18:09:05.034Z,15.03
2019-02-12T18:11:48.188Z,19.00
2019-02-12T18:14:32.459Z,21.30
2019-02-12T18:17:14.829Z,25.10
2019-02-12T18:19:57.447Z,28.73
2019-02-12T18:22:40.330Z,21.77
2019-02-12T18:25:23.734Z,31.67
2019-02-12T18:28:07.226Z,24.33
2019-02-12T18:30:49.999Z,22.80
2019-02-12T18:33:32.315Z,24.57
2019-02-12T18:36:15.115Z,20.30
2019-02-12T18:38:57.567Z,18.47
2019-02-12T18:41:39.796Z,19.47
2019-02-12T18:44:22.169Z,22.03
2019-02-12T18:47:04.740Z,22.13
2019-02-12T18:49:47.462Z,23.67
2019-02-12T18:52:30.088Z,21.37
2019-02-12T18:55:12.457Z,20.27
2019-02-12T18:57:55.419Z,21.70
2019-02-12T19:00:48.678Z,18.00
2019-02-12T19:03:31.358Z,22.70
2019-02-12T19:06:13.987Z,21.93
2019-02-12T19:08:56.716Z,20.87
2019-02-12T19:11:45.910Z,25.83
2019-02-12T19:14:24.066Z,31.17
2019-02-12T19:17:06.906Z,27.20
2019-02-12T19:19:49.743Z,23.87
2019-02-12T19:22:32.763Z,21.53
2019-02-12T19:25:15.135Z,22.03
2019-02-12T19:27:57.523Z,21.67
2019-02-12T19:30:40.254Z,18.93
2019-02-12T19:33:22.934Z,18.70
2019-02-12T19:36:05.137Z,24.93
2019-02-12T19:38:36.105Z,14.60
2019-02-12T19:41:18.753Z,16.47
2019-02-12T19:54:17.266Z,24.47
2019-02-12T19:56:59.627Z,18.60
2019-02-12T19:59:42.511Z,22.60
2019-02-12T20:02:24.983Z,22.27
2019-02-12T20:05:07.551Z,23.20
2019-02-12T20:07:50.758Z,30.13
2019-02-12T20:10:32.987Z,27.00
2019-02-12T20:13:17.698Z,29.80
2019-02-12T20:16:00.149Z,30.27
2019-02-12T20:21:57.970Z,37.57
2019-02-12T20:24:40.973Z,42.33
2019-02-12T20:27:23.813Z,41.73
2019-02-12T20:30:06.361Z,43.20
2019-02-12T20:32:48.855Z,37.57
2019-02-12T20:35:36.368Z,39.67
2019-02-12T20:38:16.120Z,38.80
2019-02-12T20:40:58.647Z,42.83
2019-02-12T20:43:41.509Z,40.23
2019-02-12T20:46:23.846Z,40.53
2019-02-12T20:49:06.338Z,44.50
2019-02-12T20:51:48.911Z,48.73
2019-02-12T20:54:31.319Z,42.17
2019-02-12T20:57:15.372Z,49.57
2019-02-12T20:59:58.254Z,43.10
2019-02-12T21:02:41.652Z,46.30
2019-02-12T21:05:24.430Z,52.97
2019-02-12T21:08:06.746Z,50.47
2019-02-12T21:10:49.416Z,52.77
2019-02-12T21:13:31.391Z,52.80
2019-02-12T21:16:13.947Z,47.00
2019-02-12T21:18:56.692Z,50.47
2019-02-12T21:21:43.165Z,42.90
2019-02-12T21:24:26.355Z,47.20
2019-02-12T21:27:08.360Z,48.70
2019-02-12T21:29:50.737Z,48.57
2019-02-12T21:32:32.963Z,45.73
2019-02-12T21:35:15.571Z,42.43
2019-02-12T21:37:58.809Z,52.43
2019-02-12T21:40:41.391Z,51.77
2019-02-12T21:43:24.004Z,50.17
2019-02-12T21:46:06.357Z,51.73
2019-02-12T21:48:49.138Z,44.90
2019-02-12T21:51:32.046Z,52.90
2019-02-12T21:54:14.447Z,43.97
2019-02-12T21:56:57.821Z,49.73
2019-02-12T21:59:40.402Z,48.83
2019-02-12T22:02:23.070Z,48.57
2019-02-12T22:05:05.978Z,44.27
2019-02-12T22:07:49.474Z,47.47
2019-02-12T22:10:33.405Z,49.13
2019-02-12T22:13:15.742Z,44.07
2019-02-12T22:15:57.865Z,47.73
2019-02-12T22:18:40.062Z,45.67
2019-02-12T22:21:22.726Z,48.27
2019-02-12T22:24:05.623Z,43.03
2019-02-12T22:26:48.338Z,44.63
2019-02-12T22:29:30.519Z,47.23
2019-02-12T22:32:13.926Z,45.40
2019-02-12T22:34:56.699Z,51.10
2019-02-12T22:37:39.873Z,49.40
2019-02-12T22:40:22.743Z,38.97
2019-02-12T22:43:05.465Z,53.43
2019-02-12T22:45:47.733Z,42.20
2019-02-12T22:48:32.283Z,46.10
2019-02-12T22:51:14.483Z,47.93
2019-02-12T22:53:58.090Z,44.47
2019-02-12T22:56:40.549Z,40.87
2019-02-12T22:59:25.839Z,43.27
2019-02-12T23:02:08.983Z,42.30
2019-02-12T23:04:51.234Z,43.63
2019-02-12T23:07:34.103Z,40.87
2019-02-12T23:10:16.750Z,37.37
2019-02-12T23:12:59.031Z,43.40
2019-02-12T23:15:41.854Z,40.13
2019-02-12T23:18:24.055Z,48.10
2019-02-12T23:21:06.698Z,38.63
2019-02-12T23:23:48.902Z,38.23
2019-02-12T23:26:31.793Z,32.77
2019-02-12T23:29:13.938Z,35.37
2019-02-12T23:31:56.410Z,40.80
2019-02-12T23:34:38.950Z,39.03
2019-02-12T23:37:21.609Z,35.20
2019-02-12T23:40:03.847Z,34.87
2019-02-12T23:42:46.719Z,30.43
2019-02-12T23:45:28.690Z,36.13
2019-02-12T23:48:11.797Z,36.77
2019-02-12T23:50:53.951Z,31.80
2019-02-12T23:53:36.753Z,28.43
2019-02-12T23:56:19.154Z,30.33
2019-02-12T23:59:01.460Z,28.13
